createdAt,value
2018-09-15T00:01:06.826Z,0
2018-09-15T00:02:16.785Z,0
2018-09-15T00:03:26.726Z,0
2018-09-15T00:04:36.679Z,0
2018-09-15T00:05:46.377Z,0
2018-09-15T00:06:56.331Z,0
2018-09-15T00:08:06.275Z,0
2018-09-15T00:09:15.994Z,0
2018-09-15T00:10:25.685Z,0
2018-09-15T00:11:35.141Z,0
2018-09-15T00:12:44.833Z,0
2018-09-15T00:13:54.550Z,0
2018-09-15T00:15:04.507Z,0
2018-09-15T00:16:13.933Z,0
2018-09-15T00:17:23.893Z,0
2018-09-15T00:18:33.848Z,0
2018-09-15T00:19:43.807Z,0
2018-09-15T00:20:53.505Z,0
2018-09-15T00:22:03.456Z,0
2018-09-15T00:23:13.960Z,0
2018-09-15T00:24:24.001Z,0
2018-09-15T00:25:33.975Z,0
2018-09-15T00:26:43.938Z,0
2018-09-15T00:27:53.882Z,0
2018-09-15T00:29:03.583Z,0
2018-09-15T00:30:13.278Z,0
2018-09-15T00:31:23.223Z,0
2018-09-15T00:32:33.167Z,0
2018-09-15T00:33:42.900Z,0
2018-09-15T00:34:52.845Z,0
2018-09-15T00:36:02.530Z,0
2018-09-15T00:37:12.496Z,0
2018-09-15T00:38:22.443Z,0
2018-09-15T00:39:31.873Z,0
2018-09-15T00:40:41.822Z,0
2018-09-15T00:41:52.304Z,0
2018-09-15T00:43:02.281Z,0
2018-09-15T00:44:12.449Z,0
2018-09-15T00:45:22.169Z,0
2018-09-15T00:46:32.112Z,0
2018-09-15T00:47:42.057Z,0
2018-09-15T00:48:52.021Z,0
2018-09-15T00:50:01.980Z,0
2018-09-15T00:51:11.932Z,0
2018-09-15T00:52:21.636Z,0
2018-09-15T00:53:31.329Z,0
2018-09-15T00:54:41.275Z,0
2018-09-15T00:55:51.215Z,0
2018-09-15T00:57:00.646Z,0
2018-09-15T00:58:10.589Z,0
2018-09-15T00:59:20.021Z,0
2018-09-15T01:00:29.726Z,0
2018-09-15T01:01:39.683Z,0
2018-09-15T01:02:49.385Z,0
2018-09-15T01:03:59.329Z,0
2018-09-15T01:05:09.281Z,0
2018-09-15T01:06:19.234Z,0
2018-09-15T01:07:29.186Z,0
2018-09-15T01:08:38.867Z,0
2018-09-15T01:09:48.817Z,0
2018-09-15T01:10:58.761Z,0
2018-09-15T01:12:08.706Z,0
2018-09-15T01:13:18.411Z,0
2018-09-15T01:14:28.795Z,0
2018-09-15T01:15:38.759Z,0
2018-09-15T01:16:48.961Z,0
2018-09-15T01:17:58.661Z,0
2018-09-15T01:19:08.612Z,0
2018-09-15T01:20:18.500Z,0
2018-09-15T01:21:28.452Z,0
2018-09-15T01:22:38.407Z,0
2018-09-15T01:23:48.102Z,0
2018-09-15T01:24:58.114Z,0
2018-09-15T01:26:08.426Z,0
2018-09-15T01:27:18.388Z,0
2018-09-15T01:28:28.341Z,0
2018-09-15T01:29:38.025Z,0
2018-09-15T01:30:47.726Z,0
2018-09-15T01:31:57.693Z,0
2018-09-15T01:33:07.635Z,0
2018-09-15T01:34:17.326Z,0
2018-09-15T01:35:27.008Z,0
2018-09-15T01:36:36.696Z,0
2018-09-15T01:37:46.371Z,0
2018-09-15T01:38:56.329Z,0
2018-09-15T01:40:06.066Z,0
2018-09-15T01:41:16.009Z,0
2018-09-15T01:42:25.686Z,0
2018-09-15T01:43:35.633Z,0
2018-09-15T01:44:45.121Z,0
2018-09-15T01:45:55.062Z,0
2018-09-15T01:47:04.764Z,0
2018-09-15T01:48:14.448Z,0
2018-09-15T01:49:24.413Z,0
2018-09-15T01:50:34.350Z,0
2018-09-15T01:51:44.308Z,0
2018-09-15T01:52:54.258Z,0
2018-09-15T01:54:04.196Z,0
2018-09-15T01:55:13.913Z,0
2018-09-15T01:56:23.891Z,0
2018-09-15T01:57:34.213Z,0
2018-09-15T01:58:44.249Z,0
2018-09-15T01:59:54.202Z,0
2018-09-15T02:01:04.156Z,0
2018-09-15T02:02:13.337Z,0
2018-09-15T02:03:23.280Z,0
2018-09-15T02:04:33.246Z,0
2018-09-15T02:05:43.196Z,0
2018-09-15T02:06:53.157Z,0
2018-09-15T02:08:03.114Z,0
2018-09-15T02:09:13.058Z,0
2018-09-15T02:10:22.491Z,0
2018-09-15T02:11:32.188Z,0
2018-09-15T02:12:42.139Z,0
2018-09-15T02:13:51.829Z,0
2018-09-15T02:15:01.511Z,0
2018-09-15T02:16:11.460Z,0
2018-09-15T02:17:21.400Z,0
2018-09-15T02:18:31.092Z,0
2018-09-15T02:19:41.040Z,0
2018-09-15T02:20:50.721Z,0
2018-09-15T02:22:00.417Z,0
2018-09-15T02:23:10.837Z,0
2018-09-15T02:24:20.788Z,0
2018-09-15T02:25:30.735Z,0
2018-09-15T02:26:40.426Z,0
2018-09-15T02:27:50.144Z,0
2018-09-15T02:29:00.402Z,0
2018-09-15T02:30:10.441Z,0
2018-09-15T02:31:20.450Z,0
2018-09-15T02:32:30.399Z,0
2018-09-15T02:33:40.387Z,0
2018-09-15T02:34:50.337Z,0
2018-09-15T02:36:00.288Z,0
2018-09-15T02:37:09.983Z,0
2018-09-15T02:38:19.673Z,0
2018-09-15T02:39:29.346Z,0
2018-09-15T02:40:39.031Z,0
2018-09-15T02:41:48.982Z,0
2018-09-15T02:42:58.922Z,0
2018-09-15T02:44:08.883Z,0
2018-09-15T02:45:18.830Z,0
2018-09-15T02:46:28.776Z,0
2018-09-15T02:47:38.462Z,0
2018-09-15T02:48:48.404Z,0
2018-09-15T02:49:58.351Z,0
2018-09-15T02:51:08.305Z,0
2018-09-15T02:52:18.282Z,0
2018-09-15T02:53:27.967Z,0
2018-09-15T02:54:38.033Z,0
2018-09-15T02:55:48.010Z,0
2018-09-15T02:56:57.949Z,0
2018-09-15T02:58:07.405Z,0
2018-09-15T02:59:17.349Z,0
2018-09-15T03:00:26.790Z,0
2018-09-15T03:01:36.729Z,0
2018-09-15T03:02:46.693Z,0
2018-09-15T03:03:56.637Z,0
2018-09-15T03:05:06.576Z,0
2018-09-15T03:06:16.279Z,0
2018-09-15T03:07:26.232Z,0
2018-09-15T03:08:36.256Z,0
2018-09-15T03:09:46.201Z,0
2018-09-15T03:10:56.715Z,0
2018-09-15T03:12:06.769Z,0
2018-09-15T03:13:16.723Z,0
2018-09-15T03:14:26.685Z,0
2018-09-15T03:15:36.654Z,0
2018-09-15T03:16:46.616Z,0
2018-09-15T03:17:56.303Z,0
2018-09-15T03:19:06.263Z,0
2018-09-15T03:20:16.216Z,0
2018-09-15T03:21:26.161Z,0
2018-09-15T03:22:35.854Z,0
2018-09-15T03:23:45.788Z,0
2018-09-15T03:24:55.465Z,0
2018-09-15T03:26:05.160Z,0
2018-09-15T03:27:15.102Z,0
2018-09-15T03:28:25.036Z,0
2018-09-15T03:29:34.993Z,0
2018-09-15T03:30:44.949Z,0
2018-09-15T03:31:54.755Z,0
2018-09-15T03:33:04.479Z,0
2018-09-15T03:34:14.415Z,0
2018-09-15T03:35:24.096Z,0
2018-09-15T03:36:34.039Z,0
2018-09-15T03:37:43.715Z,0
2018-09-15T03:38:53.685Z,0
2018-09-15T03:40:03.637Z,0
2018-09-15T03:41:13.076Z,0
2018-09-15T03:42:23.029Z,0
2018-09-15T03:43:32.999Z,0
2018-09-15T03:44:42.963Z,0
2018-09-15T03:45:52.647Z,0
2018-09-15T03:47:02.581Z,0
2018-09-15T03:48:12.272Z,0
2018-09-15T03:49:22.217Z,0
2018-09-15T03:50:32.159Z,0
2018-09-15T03:51:42.124Z,0
2018-09-15T03:52:52.092Z,0
2018-09-15T03:54:02.045Z,0
2018-09-15T03:55:11.983Z,0
2018-09-15T03:56:21.929Z,0
2018-09-15T03:57:31.613Z,0
2018-09-15T03:58:41.304Z,0
2018-09-15T03:59:51.323Z,0
2018-09-15T04:01:01.290Z,0
2018-09-15T04:02:11.003Z,0
2018-09-15T04:03:20.948Z,0
2018-09-15T04:04:30.893Z,0
2018-09-15T04:05:40.580Z,0
2018-09-15T04:06:50.273Z,0
2018-09-15T04:08:00.233Z,0
2018-09-15T04:09:10.170Z,0
2018-09-15T04:10:20.123Z,0
2018-09-15T04:11:29.870Z,0
2018-09-15T04:12:39.556Z,0
2018-09-15T04:13:49.516Z,0
2018-09-15T04:14:59.459Z,0
2018-09-15T04:16:09.151Z,0
2018-09-15T04:17:19.089Z,0
2018-09-15T04:18:29.054Z,0
2018-09-15T04:19:39.006Z,0
2018-09-15T04:20:48.700Z,0
2018-09-15T04:21:58.395Z,0
2018-09-15T04:23:08.101Z,0
2018-09-15T04:24:17.542Z,0
2018-09-15T04:25:27.510Z,0
2018-09-15T04:26:37.462Z,0
2018-09-15T04:27:47.413Z,0
2018-09-15T04:28:57.379Z,0
2018-09-15T04:30:07.341Z,0
2018-09-15T04:31:17.042Z,0
2018-09-15T04:32:26.986Z,0
2018-09-15T04:33:36.667Z,0
2018-09-15T04:34:46.607Z,0
2018-09-15T04:35:56.571Z,0
2018-09-15T04:37:06.280Z,0
2018-09-15T04:38:16.306Z,0
2018-09-15T04:39:26.258Z,0
2018-09-15T04:40:36.204Z,5
2018-09-15T04:41:46.643Z,5
2018-09-15T04:42:56.603Z,5
2018-09-15T04:44:06.544Z,5
2018-09-15T04:45:16.506Z,5
2018-09-15T04:46:26.190Z,10
2018-09-15T04:47:35.905Z,10
2018-09-15T04:48:45.852Z,10
2018-09-15T04:49:55.801Z,10
2018-09-15T04:51:05.496Z,15
2018-09-15T04:52:15.194Z,15
2018-09-15T04:53:25.138Z,15
2018-09-15T04:54:35.102Z,20
2018-09-15T04:55:44.823Z,20
2018-09-15T04:56:54.783Z,20
2018-09-15T04:58:04.737Z,25
2018-09-15T04:59:14.677Z,25
2018-09-15T05:00:24.635Z,30
2018-09-15T05:01:34.586Z,30
2018-09-15T05:02:44.537Z,35
2018-09-15T05:03:54.489Z,40
2018-09-15T05:05:04.445Z,40
2018-09-15T05:06:14.157Z,45
2018-09-15T05:07:24.104Z,45
2018-09-15T05:08:33.790Z,50
2018-09-15T05:09:43.483Z,50
2018-09-15T05:10:53.422Z,55
2018-09-15T05:12:03.364Z,60
2018-09-15T05:13:13.324Z,65
2018-09-15T05:14:23.025Z,65
2018-09-15T05:15:32.724Z,70
2018-09-15T05:16:42.699Z,75
2018-09-15T05:17:52.667Z,80
2018-09-15T05:19:02.645Z,80
2018-09-15T05:20:12.604Z,80
2018-09-15T05:21:22.302Z,85
2018-09-15T05:22:32.251Z,90
2018-09-15T05:23:41.697Z,95
2018-09-15T05:24:51.674Z,95
2018-09-15T05:26:01.371Z,100
2018-09-15T05:27:11.319Z,100
2018-09-15T05:28:21.272Z,100
2018-09-15T05:29:31.207Z,100
2018-09-15T05:30:41.477Z,100
2018-09-15T05:31:51.170Z,105
2018-09-15T05:33:01.133Z,110
2018-09-15T05:34:10.834Z,110
2018-09-15T05:35:20.267Z,115
2018-09-15T05:36:30.218Z,125
2018-09-15T05:37:39.669Z,135
2018-09-15T05:38:49.632Z,140
2018-09-15T05:39:59.675Z,145
2018-09-15T05:41:09.297Z,150
2018-09-15T05:42:19.244Z,155
2018-09-15T05:43:29.197Z,155
2018-09-15T05:44:39.141Z,160
2018-09-15T05:45:48.818Z,165
2018-09-15T05:46:58.767Z,165
2018-09-15T05:48:08.456Z,165
2018-09-15T05:49:18.435Z,165
2018-09-15T05:50:28.394Z,165
2018-09-15T05:51:38.371Z,165
2018-09-15T05:52:48.329Z,165
2018-09-15T05:53:58.030Z,165
2018-09-15T05:55:07.724Z,165
2018-09-15T05:56:18.075Z,170
2018-09-15T05:57:28.067Z,170
2018-09-15T05:58:37.790Z,175
2018-09-15T05:59:47.732Z,175
2018-09-15T06:00:57.686Z,180
2018-09-15T06:02:07.656Z,185
2018-09-15T06:03:17.630Z,185
2018-09-15T06:04:27.376Z,190
2018-09-15T06:05:37.326Z,195
2018-09-15T06:06:47.612Z,195
2018-09-15T06:07:57.804Z,200
2018-09-15T06:09:07.760Z,200
2018-09-15T06:10:17.458Z,200
2018-09-15T06:11:27.154Z,205
2018-09-15T06:12:37.122Z,205
2018-09-15T06:13:47.354Z,205
2018-09-15T06:14:57.375Z,210
2018-09-15T06:16:07.327Z,210
2018-09-15T06:17:17.006Z,215
2018-09-15T06:18:26.971Z,220
2018-09-15T06:19:36.926Z,225
2018-09-15T06:20:46.880Z,230
2018-09-15T06:21:56.841Z,235
2018-09-15T06:23:06.527Z,235
2018-09-15T06:24:16.493Z,245
2018-09-15T06:25:26.215Z,240
2018-09-15T06:26:36.173Z,240
2018-09-15T06:27:46.177Z,245
2018-09-15T06:28:56.185Z,255
2018-09-15T06:30:06.149Z,265
2018-09-15T06:31:16.171Z,260
2018-09-15T06:32:26.126Z,265
2018-09-15T06:33:35.560Z,265
2018-09-15T06:34:45.512Z,270
2018-09-15T06:35:55.463Z,270
2018-09-15T06:37:05.408Z,270
2018-09-15T06:38:15.374Z,265
2018-09-15T06:39:25.182Z,260
2018-09-15T06:40:35.224Z,255
2018-09-15T06:41:45.187Z,265
2018-09-15T06:42:54.889Z,265
2018-09-15T06:44:04.835Z,260
2018-09-15T06:45:14.534Z,265
2018-09-15T06:46:24.489Z,270
2018-09-15T06:47:34.427Z,270
2018-09-15T06:48:44.134Z,275
2018-09-15T06:49:54.094Z,275
2018-09-15T06:51:03.786Z,275
2018-09-15T06:52:13.756Z,275
2018-09-15T06:53:23.712Z,275
2018-09-15T06:54:33.420Z,275
2018-09-15T06:55:43.370Z,275
2018-09-15T06:56:53.334Z,275
2018-09-15T06:58:03.034Z,275
2018-09-15T06:59:13.013Z,275
2018-09-15T07:00:22.992Z,270
2018-09-15T07:01:32.966Z,275
2018-09-15T07:02:42.935Z,295
2018-09-15T07:03:52.636Z,305
2018-09-15T07:05:02.600Z,290
2018-09-15T07:06:12.553Z,285
2018-09-15T07:07:22.510Z,280
2018-09-15T07:08:32.500Z,285
2018-09-15T07:09:42.195Z,280
2018-09-15T07:10:52.150Z,280
2018-09-15T07:12:02.105Z,280
2018-09-15T07:13:12.426Z,280
2018-09-15T07:14:22.387Z,285
2018-09-15T07:15:31.840Z,285
2018-09-15T07:16:41.796Z,290
2018-09-15T07:17:51.737Z,290
2018-09-15T07:19:01.439Z,295
2018-09-15T07:20:11.573Z,295
2018-09-15T07:21:21.235Z,295
2018-09-15T07:22:31.199Z,295
2018-09-15T07:23:41.153Z,300
2018-09-15T07:24:51.107Z,300
2018-09-15T07:26:01.569Z,300
2018-09-15T07:27:11.337Z,300
2018-09-15T07:28:21.034Z,305
2018-09-15T07:29:30.982Z,305
2018-09-15T07:30:40.949Z,305
2018-09-15T07:31:50.883Z,305
2018-09-15T07:33:00.870Z,305
2018-09-15T07:34:10.813Z,305
2018-09-15T07:35:20.770Z,310
2018-09-15T07:36:30.480Z,310
2018-09-15T07:37:40.879Z,305
2018-09-15T07:38:50.841Z,310
2018-09-15T07:40:00.795Z,310
2018-09-15T07:41:10.757Z,310
2018-09-15T07:42:20.671Z,310
2018-09-15T07:43:30.379Z,310
2018-09-15T07:44:40.139Z,315
2018-09-15T07:45:50.122Z,315
2018-09-15T07:46:59.824Z,315
2018-09-15T07:48:09.525Z,315
2018-09-15T07:49:19.477Z,315
2018-09-15T07:50:29.441Z,320
2018-09-15T07:51:39.778Z,320
2018-09-15T07:52:49.736Z,320
2018-09-15T07:53:59.683Z,325
2018-09-15T07:55:09.638Z,335
2018-09-15T07:56:19.599Z,330
2018-09-15T07:57:29.744Z,335
2018-09-15T07:58:39.739Z,340
2018-09-15T07:59:49.689Z,345
2018-09-15T08:00:59.635Z,345
2018-09-15T08:02:09.856Z,340
2018-09-15T08:03:19.562Z,340
2018-09-15T08:04:29.529Z,340
2018-09-15T08:05:39.489Z,340
2018-09-15T08:06:49.445Z,340
2018-09-15T08:07:59.408Z,355
2018-09-15T08:09:09.393Z,525
2018-09-15T08:10:19.350Z,650
2018-09-15T08:11:29.057Z,705
2018-09-15T08:12:38.765Z,700
2018-09-15T08:13:48.738Z,730
2018-09-15T08:14:58.694Z,705
2018-09-15T08:16:08.127Z,740
2018-09-15T08:17:18.105Z,760
2018-09-15T08:18:28.089Z,805
2018-09-15T08:19:38.046Z,795
2018-09-15T08:20:47.745Z,805
2018-09-15T08:21:57.470Z,815
2018-09-15T08:23:07.428Z,860
2018-09-15T08:24:17.387Z,870
2018-09-15T08:25:27.351Z,925
2018-09-15T08:26:37.729Z,870
2018-09-15T08:27:47.809Z,870
2018-09-15T08:28:57.786Z,895
2018-09-15T08:30:07.486Z,915
2018-09-15T08:31:17.449Z,950
2018-09-15T08:32:27.431Z,955
2018-09-15T08:33:37.398Z,975
2018-09-15T08:34:47.571Z,970
2018-09-15T08:35:57.523Z,1025
2018-09-15T08:37:07.226Z,1070
2018-09-15T08:38:16.676Z,1020
2018-09-15T08:39:26.672Z,1120
2018-09-15T08:40:36.372Z,1075
2018-09-15T08:41:46.333Z,385
2018-09-15T08:42:56.035Z,410
2018-09-15T08:44:05.987Z,1130
2018-09-15T08:45:15.941Z,1100
2018-09-15T08:46:25.894Z,1185
2018-09-15T08:47:35.606Z,535
2018-09-15T08:48:45.588Z,1075
2018-09-15T08:49:55.284Z,1195
2018-09-15T08:51:05.274Z,1175
2018-09-15T08:52:14.969Z,1200
2018-09-15T08:53:24.415Z,770
2018-09-15T08:54:34.364Z,1200
2018-09-15T08:55:44.056Z,1020
2018-09-15T08:56:53.500Z,1205
2018-09-15T08:58:02.959Z,1200
2018-09-15T08:59:12.915Z,1195
2018-09-15T09:00:22.662Z,1220
2018-09-15T09:01:32.372Z,1320
2018-09-15T09:02:42.343Z,1440
2018-09-15T09:03:52.859Z,1375
2018-09-15T09:05:02.820Z,1240
2018-09-15T09:06:12.533Z,1220
2018-09-15T09:07:22.499Z,1445
2018-09-15T09:08:32.221Z,1345
2018-09-15T09:09:42.195Z,1570
2018-09-15T09:10:52.162Z,1625
2018-09-15T09:12:02.125Z,1495
2018-09-15T09:13:11.597Z,825
2018-09-15T09:14:21.575Z,1495
2018-09-15T09:15:31.267Z,1685
2018-09-15T09:16:41.030Z,1020
2018-09-15T09:17:50.744Z,1365
2018-09-15T09:19:00.707Z,1725
2018-09-15T09:20:10.949Z,590
2018-09-15T09:21:20.640Z,1615
2018-09-15T09:22:30.362Z,1655
2018-09-15T09:23:40.067Z,1395
2018-09-15T09:24:49.790Z,1210
2018-09-15T09:26:00.037Z,520
2018-09-15T09:27:10.116Z,1605
2018-09-15T09:28:19.845Z,1600
2018-09-15T09:29:29.837Z,1640
2018-09-15T09:30:39.547Z,1740
2018-09-15T09:31:49.243Z,1740
2018-09-15T09:32:58.950Z,1665
2018-09-15T09:34:08.414Z,1785
2018-09-15T09:35:18.141Z,1780
2018-09-15T09:36:28.111Z,1740
2018-09-15T09:37:38.101Z,1720
2018-09-15T09:38:47.813Z,2010
2018-09-15T09:39:57.786Z,2075
2018-09-15T09:41:07.770Z,1830
2018-09-15T09:42:17.476Z,1960
2018-09-15T09:43:27.432Z,2050
2018-09-15T09:44:37.154Z,1990
2018-09-15T09:45:46.847Z,2055
2018-09-15T09:46:56.550Z,2005
2018-09-15T09:48:06.961Z,1995
2018-09-15T09:49:16.645Z,2005
2018-09-15T09:50:26.627Z,765
2018-09-15T09:51:36.590Z,1900
2018-09-15T09:52:46.558Z,2070
2018-09-15T09:53:56.257Z,1870
2018-09-15T09:55:06.222Z,1860
2018-09-15T09:56:15.412Z,545
2018-09-15T09:57:25.373Z,535
2018-09-15T09:58:35.348Z,625
2018-09-15T09:59:45.299Z,2020
2018-09-15T10:00:55.015Z,970
2018-09-15T10:02:04.970Z,2170
2018-09-15T10:03:14.955Z,2120
2018-09-15T10:04:24.913Z,810
2018-09-15T10:05:34.889Z,650
2018-09-15T10:06:44.599Z,680
2018-09-15T10:07:54.346Z,1900
2018-09-15T10:09:04.127Z,1905
2018-09-15T10:10:13.871Z,2135
2018-09-15T10:11:23.838Z,1570
2018-09-15T10:12:33.820Z,2135
2018-09-15T10:13:43.788Z,810
2018-09-15T10:14:53.762Z,1630
2018-09-15T10:16:04.146Z,765
2018-09-15T10:17:14.132Z,2185
2018-09-15T10:18:23.836Z,840
2018-09-15T10:19:33.548Z,2230
2018-09-15T10:20:43.246Z,1600
2018-09-15T10:21:53.268Z,2245
2018-09-15T10:23:03.237Z,855
2018-09-15T10:24:13.414Z,1885
2018-09-15T10:25:23.379Z,2430
2018-09-15T10:26:33.095Z,765
2018-09-15T10:27:42.820Z,915
2018-09-15T10:28:52.539Z,650
2018-09-15T10:30:02.504Z,1285
2018-09-15T10:31:12.464Z,2120
2018-09-15T10:32:21.905Z,2085
2018-09-15T10:33:31.595Z,950
2018-09-15T10:34:41.284Z,1155
2018-09-15T10:35:50.993Z,2180
2018-09-15T10:37:00.968Z,2205
2018-09-15T10:38:10.928Z,2095
2018-09-15T10:39:20.878Z,2050
2018-09-15T10:40:31.407Z,2305
2018-09-15T10:41:41.429Z,1965
2018-09-15T10:42:51.140Z,2370
2018-09-15T10:44:00.847Z,2265
2018-09-15T10:45:10.824Z,2160
2018-09-15T10:46:20.540Z,2350
2018-09-15T10:47:30.515Z,2540
2018-09-15T10:48:40.465Z,2570
2018-09-15T10:49:50.198Z,750
2018-09-15T10:50:59.904Z,635
2018-09-15T10:52:09.906Z,605
2018-09-15T10:53:19.615Z,660
2018-09-15T10:54:29.580Z,710
2018-09-15T10:55:39.543Z,1970
2018-09-15T10:56:49.193Z,2645
2018-09-15T10:57:58.902Z,2645
2018-09-15T10:59:08.354Z,2690
2018-09-15T11:00:18.207Z,2620
2018-09-15T11:01:28.192Z,2275
2018-09-15T11:02:38.168Z,2340
2018-09-15T11:03:48.193Z,2360
2018-09-15T11:04:57.918Z,2425
2018-09-15T11:06:08.079Z,2570
2018-09-15T11:07:17.783Z,2660
2018-09-15T11:08:27.756Z,2615
2018-09-15T11:09:37.723Z,2725
2018-09-15T11:10:47.684Z,2120
2018-09-15T11:11:57.396Z,2595
2018-09-15T11:13:07.203Z,2745
2018-09-15T11:14:16.934Z,2660
2018-09-15T11:15:26.907Z,2735
2018-09-15T11:16:36.342Z,2630
2018-09-15T11:17:46.304Z,2645
2018-09-15T11:18:56.263Z,2575
2018-09-15T11:20:06.240Z,2585
2018-09-15T11:21:15.956Z,2680
2018-09-15T11:22:26.301Z,2555
2018-09-15T11:23:36.279Z,2715
2018-09-15T11:24:46.274Z,2545
2018-09-15T11:25:56.242Z,2490
2018-09-15T11:27:06.214Z,2550
2018-09-15T11:28:16.391Z,2710
2018-09-15T11:29:26.379Z,2595
2018-09-15T11:30:36.358Z,2600
2018-09-15T11:31:46.336Z,2705
2018-09-15T11:32:56.068Z,2595
2018-09-15T11:34:06.425Z,2665
2018-09-15T11:35:15.906Z,2655
2018-09-15T11:36:25.889Z,2635
2018-09-15T11:37:35.867Z,2715
2018-09-15T11:38:45.862Z,2710
2018-09-15T11:39:55.858Z,2810
2018-09-15T11:41:05.671Z,2510
2018-09-15T11:42:15.648Z,2445
2018-09-15T11:43:25.614Z,2475
2018-09-15T11:44:35.610Z,2540
2018-09-15T11:45:45.337Z,2120
2018-09-15T11:46:55.256Z,2835
2018-09-15T11:48:05.773Z,1125
2018-09-15T11:49:15.840Z,695
2018-09-15T11:50:25.814Z,680
2018-09-15T11:51:35.536Z,725
2018-09-15T11:52:45.255Z,810
2018-09-15T11:53:55.656Z,1635
2018-09-15T11:55:05.900Z,975
2018-09-15T11:56:15.867Z,2280
2018-09-15T11:57:25.845Z,1040
2018-09-15T11:58:35.562Z,910
2018-09-15T11:59:45.274Z,785
2018-09-15T12:00:54.972Z,650
2018-09-15T12:02:05.127Z,570
2018-09-15T12:03:14.841Z,525
2018-09-15T12:04:24.825Z,530
2018-09-15T12:05:34.778Z,590
2018-09-15T12:06:44.232Z,750
2018-09-15T12:07:54.561Z,790
2018-09-15T12:09:04.565Z,800
2018-09-15T12:10:14.284Z,890
2018-09-15T12:11:24.005Z,970
2018-09-15T12:12:33.694Z,740
2018-09-15T12:13:43.640Z,610
2018-09-15T12:14:53.812Z,490
2018-09-15T12:16:03.788Z,395
2018-09-15T12:17:13.760Z,345
2018-09-15T12:18:23.465Z,305
2018-09-15T12:19:33.413Z,270
2018-09-15T12:20:43.126Z,260
2018-09-15T12:21:53.285Z,265
2018-09-15T12:23:03.247Z,285
2018-09-15T12:24:13.188Z,340
2018-09-15T12:25:23.154Z,425
2018-09-15T12:26:32.868Z,500
2018-09-15T12:27:42.939Z,575
2018-09-15T12:28:52.662Z,640
2018-09-15T12:30:02.643Z,725
2018-09-15T12:31:12.619Z,860
2018-09-15T12:32:22.587Z,1750
2018-09-15T12:33:32.961Z,1660
2018-09-15T12:34:42.964Z,1295
2018-09-15T12:35:52.955Z,1130
2018-09-15T12:37:02.940Z,1215
2018-09-15T12:38:13.347Z,2190
2018-09-15T12:39:23.596Z,1685
2018-09-15T12:40:33.576Z,2860
2018-09-15T12:41:43.564Z,1490
2018-09-15T12:42:53.533Z,1035
2018-09-15T12:44:03.251Z,1010
2018-09-15T12:45:13.688Z,1490
2018-09-15T12:46:23.731Z,1120
2018-09-15T12:47:33.712Z,1640
2018-09-15T12:48:43.680Z,1495
2018-09-15T12:49:53.126Z,3640
2018-09-15T12:51:03.099Z,2360
2018-09-15T12:52:13.532Z,3250
2018-09-15T12:53:23.579Z,2860
2018-09-15T12:54:33.548Z,1830
2018-09-15T12:55:43.266Z,1395
2018-09-15T12:56:53.238Z,1915
2018-09-15T12:58:03.284Z,1270
2018-09-15T12:59:13.284Z,1175
2018-09-15T13:00:23.244Z,1610
2018-09-15T13:01:33.255Z,1260
2018-09-15T13:02:43.254Z,1230
2018-09-15T13:03:53.224Z,1040
2018-09-15T13:05:02.924Z,1025
2018-09-15T13:06:12.898Z,2275
2018-09-15T13:07:22.665Z,820
2018-09-15T13:08:32.376Z,755
2018-09-15T13:09:42.351Z,710
2018-09-15T13:10:52.063Z,695
2018-09-15T13:12:01.497Z,695
2018-09-15T13:13:11.210Z,690
2018-09-15T13:14:21.252Z,645
2018-09-15T13:15:31.739Z,635
2018-09-15T13:16:41.274Z,625
2018-09-15T13:17:51.264Z,630
2018-09-15T13:19:01.222Z,670
2018-09-15T13:20:11.193Z,685
2018-09-15T13:21:21.156Z,705
2018-09-15T13:22:31.105Z,680
2018-09-15T13:23:41.261Z,625
2018-09-15T13:24:51.304Z,600
2018-09-15T13:26:01.204Z,585
2018-09-15T13:27:11.169Z,575
2018-09-15T13:28:21.137Z,535
2018-09-15T13:29:30.857Z,500
2018-09-15T13:30:40.913Z,460
2018-09-15T13:31:50.890Z,420
2018-09-15T13:33:00.598Z,370
2018-09-15T13:34:10.621Z,330
2018-09-15T13:35:20.580Z,295
2018-09-15T13:36:30.544Z,275
2018-09-15T13:37:40.589Z,265
2018-09-15T13:38:50.275Z,270
2018-09-15T13:39:59.979Z,270
2018-09-15T13:41:09.958Z,275
2018-09-15T13:42:19.925Z,285
2018-09-15T13:43:29.930Z,295
2018-09-15T13:44:39.898Z,300
2018-09-15T13:45:49.653Z,320
2018-09-15T13:46:59.869Z,355
2018-09-15T13:48:09.828Z,420
2018-09-15T13:49:19.793Z,470
2018-09-15T13:50:29.766Z,525
2018-09-15T13:51:39.690Z,595
2018-09-15T13:52:49.651Z,835
2018-09-15T13:53:59.628Z,655
2018-09-15T13:55:09.610Z,640
2018-09-15T13:56:19.579Z,640
2018-09-15T13:57:29.535Z,660
2018-09-15T13:58:39.265Z,685
2018-09-15T13:59:48.985Z,805
2018-09-15T14:00:58.420Z,700
2018-09-15T14:02:08.386Z,690
2018-09-15T14:03:18.338Z,695
2018-09-15T14:04:28.288Z,725
2018-09-15T14:05:38.285Z,730
2018-09-15T14:06:48.285Z,705
2018-09-15T14:07:57.999Z,730
2018-09-15T14:09:07.447Z,780
2018-09-15T14:10:23.788Z,820
2018-09-15T14:11:33.499Z,890
2018-09-15T14:12:43.215Z,770
2018-09-15T14:13:53.182Z,725
2018-09-15T14:15:03.130Z,695
2018-09-15T14:16:12.900Z,685
2018-09-15T14:17:23.142Z,760
2018-09-15T14:18:33.097Z,725
2018-09-15T14:19:43.066Z,740
2018-09-15T14:20:53.034Z,845
2018-09-15T14:22:03.084Z,680
2018-09-15T14:23:13.055Z,615
2018-09-15T14:24:22.813Z,550
2018-09-15T14:25:32.781Z,495
2018-09-15T14:26:42.757Z,455
2018-09-15T14:27:52.717Z,410
2018-09-15T14:29:02.435Z,365
2018-09-15T14:30:12.149Z,335
2018-09-15T14:31:21.857Z,310
2018-09-15T14:32:31.819Z,290
2018-09-15T14:33:41.533Z,280
2018-09-15T14:34:51.478Z,270
2018-09-15T14:36:01.139Z,260
2018-09-15T14:37:10.838Z,255
2018-09-15T14:38:20.800Z,255
2018-09-15T14:39:30.829Z,255
2018-09-15T14:40:40.796Z,255
2018-09-15T14:41:50.759Z,245
2018-09-15T14:43:00.740Z,230
2018-09-15T14:44:10.842Z,215
2018-09-15T14:45:20.553Z,200
2018-09-15T14:46:30.502Z,200
2018-09-15T14:47:40.195Z,195
2018-09-15T14:48:49.895Z,185
2018-09-15T14:49:59.862Z,175
2018-09-15T14:51:09.836Z,170
2018-09-15T14:52:19.543Z,170
2018-09-15T14:53:29.506Z,170
2018-09-15T14:54:39.461Z,175
2018-09-15T14:55:49.415Z,175
2018-09-15T14:56:59.378Z,170
2018-09-15T14:58:09.087Z,160
2018-09-15T14:59:19.062Z,155
2018-09-15T15:00:28.761Z,150
2018-09-15T15:01:38.985Z,140
2018-09-15T15:02:48.682Z,135
2018-09-15T15:03:58.647Z,135
2018-09-15T15:05:08.612Z,135
2018-09-15T15:06:18.534Z,130
2018-09-15T15:07:28.522Z,125
2018-09-15T15:08:38.227Z,140
2018-09-15T15:09:47.681Z,145
2018-09-15T15:10:57.659Z,155
2018-09-15T15:12:07.614Z,165
2018-09-15T15:13:17.574Z,165
2018-09-15T15:14:27.532Z,155
2018-09-15T15:15:37.241Z,145
2018-09-15T15:16:46.942Z,130
2018-09-15T15:17:56.907Z,115
2018-09-15T15:19:06.609Z,105
2018-09-15T15:20:16.569Z,100
2018-09-15T15:21:26.547Z,95
2018-09-15T15:22:36.249Z,90
2018-09-15T15:23:45.942Z,75
2018-09-15T15:24:55.377Z,70
2018-09-15T15:26:05.212Z,65
2018-09-15T15:27:14.994Z,55
2018-09-15T15:28:24.959Z,50
2018-09-15T15:29:34.695Z,45
2018-09-15T15:30:44.661Z,45
2018-09-15T15:31:54.819Z,50
2018-09-15T15:33:04.547Z,55
2018-09-15T15:34:14.017Z,60
2018-09-15T15:35:24.188Z,70
2018-09-15T15:36:34.152Z,80
2018-09-15T15:37:44.321Z,95
2018-09-15T15:38:53.766Z,110
2018-09-15T15:40:03.730Z,130
2018-09-15T15:41:13.426Z,150
2018-09-15T15:42:23.838Z,170
2018-09-15T15:43:34.402Z,180
2018-09-15T15:44:44.470Z,180
2018-09-15T15:45:54.447Z,175
2018-09-15T15:47:04.407Z,170
2018-09-15T15:48:14.119Z,170
2018-09-15T15:49:23.572Z,165
2018-09-15T15:50:32.772Z,165
2018-09-15T15:51:42.987Z,165
2018-09-15T15:52:52.680Z,155
2018-09-15T15:54:02.699Z,145
2018-09-15T15:55:12.666Z,140
2018-09-15T15:56:22.386Z,125
2018-09-15T15:57:32.124Z,115
2018-09-15T15:58:42.681Z,105
2018-09-15T15:59:52.771Z,100
2018-09-15T16:01:02.765Z,100
2018-09-15T16:02:12.504Z,100
2018-09-15T16:03:22.215Z,95
2018-09-15T16:04:32.329Z,85
2018-09-15T16:05:42.332Z,75
2018-09-15T16:06:52.293Z,70
2018-09-15T16:08:02.258Z,65
2018-09-15T16:09:12.219Z,65
2018-09-15T16:10:21.930Z,70
2018-09-15T16:11:31.641Z,75
2018-09-15T16:12:41.612Z,80
2018-09-15T16:13:51.765Z,85
2018-09-15T16:15:01.713Z,85
2018-09-15T16:16:11.687Z,75
2018-09-15T16:17:22.005Z,75
2018-09-15T16:18:31.999Z,75